<?xml version="1.0" encoding="UTF-8" standalone="no" ?>
<gpx xmlns="http://www.topografix.com/GPX/1/1" xmlns:xsi="http://www.w3.org/2001/XMLSchema-instance" xsi:schemaLocation="http://www.topografix.com/GPX/1/1 http://www.topografix.com/GPX/1/1/gpx.xsd" version="1.1" creator="VisuGPX - https://www.visugpx.com">
  <metadata>
    <name>La Route des Mulets ®</name>
    <desc><![CDATA[Grand itinéraire EquiLiberté du Poitou/Charente à l'Italie]]></desc>
  </metadata>
  <trk>
    <name><![CDATA[8713556-sauzé Champagne]]></name>
    <trkseg>
      <trkpt lat="46.1232" lon="0.12681">
        <ele>171</ele>
        <time>2018-05-27T19:06:06Z</time>
      </trkpt>
      <trkpt lat="46.12256" lon="0.12485">
        <ele>159</ele>
        <time>2018-05-27T19:07:06Z</time>
      </trkpt>
      <trkpt lat="46.12077" lon="0.13049">
        <ele>162</ele>
        <time>2018-05-27T19:08:06Z</time>
      </trkpt>
      <trkpt lat="46.12062" lon="0.1298">
        <ele>159</ele>
        <time>2018-05-27T19:09:06Z</time>
      </trkpt>
      <trkpt lat="46.11959" lon="0.12903">
        <ele>150</ele>
        <time>2018-05-27T19:10:06Z</time>
      </trkpt>
      <trkpt lat="46.11895" lon="0.12885">
        <ele>149</ele>
        <time>2018-05-27T19:11:06Z</time>
      </trkpt>
      <trkpt lat="46.11779" lon="0.13176">
        <ele>153</ele>
        <time>2018-05-27T19:12:06Z</time>
      </trkpt>
      <trkpt lat="46.11621" lon="0.13574">
        <ele>158</ele>
        <time>2018-05-27T19:13:06Z</time>
      </trkpt>
      <trkpt lat="46.11416" lon="0.13929">
        <ele>162</ele>
        <time>2018-05-27T19:14:06Z</time>
      </trkpt>
      <trkpt lat="46.11315" lon="0.14149">
        <ele>165</ele>
        <time>2018-05-27T19:15:06Z</time>
      </trkpt>
      <trkpt lat="46.11113" lon="0.14322">
        <ele>160</ele>
        <time>2018-05-27T19:16:06Z</time>
      </trkpt>
      <trkpt lat="46.1106" lon="0.14539">
        <ele>164</ele>
        <time>2018-05-27T19:17:06Z</time>
      </trkpt>
      <trkpt lat="46.11041" lon="0.14661">
        <ele>164</ele>
        <time>2018-05-27T19:18:06Z</time>
      </trkpt>
      <trkpt lat="46.10959" lon="0.1508">
        <ele>166</ele>
        <time>2018-05-27T19:19:06Z</time>
      </trkpt>
      <trkpt lat="46.108" lon="0.15177">
        <ele>161</ele>
        <time>2018-05-27T19:20:06Z</time>
      </trkpt>
      <trkpt lat="46.1076" lon="0.15338">
        <ele>171</ele>
        <time>2018-05-27T19:21:06Z</time>
      </trkpt>
      <trkpt lat="46.10818" lon="0.15473">
        <ele>176</ele>
        <time>2018-05-27T19:22:06Z</time>
      </trkpt>
      <trkpt lat="46.10659" lon="0.15639">
        <ele>182</ele>
        <time>2018-05-27T19:23:06Z</time>
      </trkpt>
      <trkpt lat="46.10533" lon="0.15618">
        <ele>178</ele>
        <time>2018-05-27T19:24:06Z</time>
      </trkpt>
      <trkpt lat="46.1042" lon="0.15542">
        <ele>166</ele>
        <time>2018-05-27T19:25:06Z</time>
      </trkpt>
      <trkpt lat="46.10174" lon="0.15672">
        <ele>156</ele>
        <time>2018-05-27T19:26:06Z</time>
      </trkpt>
      <trkpt lat="46.10231" lon="0.15789">
        <ele>161</ele>
        <time>2018-05-27T19:27:06Z</time>
      </trkpt>
      <trkpt lat="46.1031" lon="0.15891">
        <ele>165</ele>
        <time>2018-05-27T19:28:06Z</time>
      </trkpt>
      <trkpt lat="46.10107" lon="0.16001">
        <ele>162</ele>
        <time>2018-05-27T19:29:06Z</time>
      </trkpt>
      <trkpt lat="46.09886" lon="0.1605">
        <ele>153</ele>
        <time>2018-05-27T19:30:06Z</time>
      </trkpt>
      <trkpt lat="46.09491" lon="0.16009">
        <ele>161</ele>
        <time>2018-05-27T19:31:06Z</time>
      </trkpt>
      <trkpt lat="46.09466" lon="0.15976">
        <ele>162</ele>
        <time>2018-05-27T19:32:06Z</time>
      </trkpt>
      <trkpt lat="46.09392" lon="0.15981">
        <ele>163</ele>
        <time>2018-05-27T19:33:06Z</time>
      </trkpt>
      <trkpt lat="46.09089" lon="0.1618">
        <ele>161</ele>
        <time>2018-05-27T19:34:06Z</time>
      </trkpt>
      <trkpt lat="46.08921" lon="0.1633">
        <ele>159</ele>
        <time>2018-05-27T19:35:06Z</time>
      </trkpt>
      <trkpt lat="46.08903" lon="0.16422">
        <ele>160</ele>
        <time>2018-05-27T19:36:06Z</time>
      </trkpt>
      <trkpt lat="46.08859" lon="0.16619">
        <ele>158</ele>
        <time>2018-05-27T19:37:06Z</time>
      </trkpt>
      <trkpt lat="46.08873" lon="0.16945">
        <ele>159</ele>
        <time>2018-05-27T19:38:06Z</time>
      </trkpt>
      <trkpt lat="46.08877" lon="0.17096">
        <ele>158</ele>
        <time>2018-05-27T19:39:06Z</time>
      </trkpt>
      <trkpt lat="46.08962" lon="0.173">
        <ele>156</ele>
        <time>2018-05-27T19:40:06Z</time>
      </trkpt>
      <trkpt lat="46.09054" lon="0.17609">
        <ele>160</ele>
        <time>2018-05-27T19:41:06Z</time>
      </trkpt>
      <trkpt lat="46.08833" lon="0.17634">
        <ele>158</ele>
        <time>2018-05-27T19:42:06Z</time>
      </trkpt>
      <trkpt lat="46.08636" lon="0.17606">
        <ele>150</ele>
        <time>2018-05-27T19:43:06Z</time>
      </trkpt>
      <trkpt lat="46.0848" lon="0.17632">
        <ele>149</ele>
        <time>2018-05-27T19:44:06Z</time>
      </trkpt>
      <trkpt lat="46.0839" lon="0.17621">
        <ele>150</ele>
        <time>2018-05-27T19:45:06Z</time>
      </trkpt>
      <trkpt lat="46.08369" lon="0.17647">
        <ele>151</ele>
        <time>2018-05-27T19:46:06Z</time>
      </trkpt>
      <trkpt lat="46.08303" lon="0.17634">
        <ele>151</ele>
        <time>2018-05-27T19:47:06Z</time>
      </trkpt>
      <trkpt lat="46.08098" lon="0.17703">
        <ele>147</ele>
        <time>2018-05-27T19:48:06Z</time>
      </trkpt>
      <trkpt lat="46.07893" lon="0.17741">
        <ele>153</ele>
        <time>2018-05-27T19:49:06Z</time>
      </trkpt>
      <trkpt lat="46.07955" lon="0.18081">
        <ele>148</ele>
        <time>2018-05-27T19:50:06Z</time>
      </trkpt>
      <trkpt lat="46.07985" lon="0.18211">
        <ele>147</ele>
        <time>2018-05-27T19:51:06Z</time>
      </trkpt>
      <trkpt lat="46.07953" lon="0.18287">
        <ele>145</ele>
        <time>2018-05-27T19:52:06Z</time>
      </trkpt>
      <trkpt lat="46.07703" lon="0.1854">
        <ele>148</ele>
        <time>2018-05-27T19:53:06Z</time>
      </trkpt>
      <trkpt lat="46.07482" lon="0.18897">
        <ele>141</ele>
        <time>2018-05-27T19:54:06Z</time>
      </trkpt>
      <trkpt lat="46.0741" lon="0.18976">
        <ele>142</ele>
        <time>2018-05-27T19:55:06Z</time>
      </trkpt>
      <trkpt lat="46.06994" lon="0.19127">
        <ele>137</ele>
        <time>2018-05-27T19:56:06Z</time>
      </trkpt>
      <trkpt lat="46.06937" lon="0.19224">
        <ele>138</ele>
        <time>2018-05-27T19:57:06Z</time>
      </trkpt>
      <trkpt lat="46.06972" lon="0.19714">
        <ele>137</ele>
        <time>2018-05-27T19:58:06Z</time>
      </trkpt>
      <trkpt lat="46.06981" lon="0.19926">
        <ele>136</ele>
        <time>2018-05-27T19:59:06Z</time>
      </trkpt>
      <trkpt lat="46.06976" lon="0.19982">
        <ele>136</ele>
        <time>2018-05-27T20:00:06Z</time>
      </trkpt>
      <trkpt lat="46.07009" lon="0.20418">
        <ele>128</ele>
        <time>2018-05-27T20:01:06Z</time>
      </trkpt>
      <trkpt lat="46.06847" lon="0.20479">
        <ele>133</ele>
        <time>2018-05-27T20:02:06Z</time>
      </trkpt>
      <trkpt lat="46.06661" lon="0.2051">
        <ele>138</ele>
        <time>2018-05-27T20:03:06Z</time>
      </trkpt>
      <trkpt lat="46.06554" lon="0.20505">
        <ele>141</ele>
        <time>2018-05-27T20:04:06Z</time>
      </trkpt>
      <trkpt lat="46.06404" lon="0.20421">
        <ele>143</ele>
        <time>2018-05-27T20:05:06Z</time>
      </trkpt>
      <trkpt lat="46.06319" lon="0.21094">
        <ele>136</ele>
        <time>2018-05-27T20:06:06Z</time>
      </trkpt>
      <trkpt lat="46.06078" lon="0.21061">
        <ele>133</ele>
        <time>2018-05-27T20:07:06Z</time>
      </trkpt>
      <trkpt lat="46.05914" lon="0.21033">
        <ele>136</ele>
        <time>2018-05-27T20:08:06Z</time>
      </trkpt>
      <trkpt lat="46.05745" lon="0.21107">
        <ele>133</ele>
        <time>2018-05-27T20:09:06Z</time>
      </trkpt>
      <trkpt lat="46.05598" lon="0.2111">
        <ele>131</ele>
        <time>2018-05-27T20:10:06Z</time>
      </trkpt>
      <trkpt lat="46.05361" lon="0.21046">
        <ele>133</ele>
        <time>2018-05-27T20:11:06Z</time>
      </trkpt>
      <trkpt lat="46.05081" lon="0.20893">
        <ele>126</ele>
        <time>2018-05-27T20:12:06Z</time>
      </trkpt>
      <trkpt lat="46.04879" lon="0.20821">
        <ele>125</ele>
        <time>2018-05-27T20:13:06Z</time>
      </trkpt>
      <trkpt lat="46.04808" lon="0.20862">
        <ele>125</ele>
        <time>2018-05-27T20:14:06Z</time>
      </trkpt>
      <trkpt lat="46.04509" lon="0.20908">
        <ele>125</ele>
        <time>2018-05-27T20:15:06Z</time>
      </trkpt>
      <trkpt lat="46.04252" lon="0.20806">
        <ele>120</ele>
        <time>2018-05-27T20:16:06Z</time>
      </trkpt>
      <trkpt lat="46.04038" lon="0.20676">
        <ele>117</ele>
        <time>2018-05-27T20:17:06Z</time>
      </trkpt>
      <trkpt lat="46.03886" lon="0.20617">
        <ele>116</ele>
        <time>2018-05-27T20:18:06Z</time>
      </trkpt>
      <trkpt lat="46.03806" lon="0.20668">
        <ele>117</ele>
        <time>2018-05-27T20:19:06Z</time>
      </trkpt>
      <trkpt lat="46.03707" lon="0.20589">
        <ele>114</ele>
        <time>2018-05-27T20:20:06Z</time>
      </trkpt>
      <trkpt lat="46.03588" lon="0.2049">
        <ele>102</ele>
        <time>2018-05-27T20:21:06Z</time>
      </trkpt>
      <trkpt lat="46.03549" lon="0.20413">
        <ele>98</ele>
        <time>2018-05-27T20:22:06Z</time>
      </trkpt>
      <trkpt lat="46.03461" lon="0.20385">
        <ele>92</ele>
        <time>2018-05-27T20:23:06Z</time>
      </trkpt>
      <trkpt lat="46.03331" lon="0.20334">
        <ele>95</ele>
        <time>2018-05-27T20:24:06Z</time>
      </trkpt>
      <trkpt lat="46.03308" lon="0.20398">
        <ele>100</ele>
        <time>2018-05-27T20:25:06Z</time>
      </trkpt>
      <trkpt lat="46.03244" lon="0.20349">
        <ele>101</ele>
        <time>2018-05-27T20:26:06Z</time>
      </trkpt>
      <trkpt lat="46.03177" lon="0.20349">
        <ele>105</ele>
        <time>2018-05-27T20:27:06Z</time>
      </trkpt>
      <trkpt lat="46.03142" lon="0.20421">
        <ele>105</ele>
        <time>2018-05-27T20:28:06Z</time>
      </trkpt>
      <trkpt lat="46.03089" lon="0.20382">
        <ele>105</ele>
        <time>2018-05-27T20:29:06Z</time>
      </trkpt>
      <trkpt lat="46.03057" lon="0.20576">
        <ele>92</ele>
        <time>2018-05-27T20:30:06Z</time>
      </trkpt>
      <trkpt lat="46.03009" lon="0.2076">
        <ele>92</ele>
        <time>2018-05-27T20:31:06Z</time>
      </trkpt>
      <trkpt lat="46.02979" lon="0.20755">
        <ele>93</ele>
        <time>2018-05-27T20:32:06Z</time>
      </trkpt>
      <trkpt lat="46.03025" lon="0.20923">
        <ele>104</ele>
        <time>2018-05-27T20:33:06Z</time>
      </trkpt>
      <trkpt lat="46.02865" lon="0.20949">
        <ele>108</ele>
        <time>2018-05-27T20:34:06Z</time>
      </trkpt>
      <trkpt lat="46.02601" lon="0.21735">
        <ele>108</ele>
        <time>2018-05-27T20:35:06Z</time>
      </trkpt>
      <trkpt lat="46.02548" lon="0.21908">
        <ele>110</ele>
        <time>2018-05-27T20:36:06Z</time>
      </trkpt>
      <trkpt lat="46.02538" lon="0.22051">
        <ele>110</ele>
        <time>2018-05-27T20:37:06Z</time>
      </trkpt>
      <trkpt lat="46.02481" lon="0.22179">
        <ele>103</ele>
        <time>2018-05-27T20:38:06Z</time>
      </trkpt>
      <trkpt lat="46.02318" lon="0.22401">
        <ele>89</ele>
        <time>2018-05-27T20:39:06Z</time>
      </trkpt>
      <trkpt lat="46.02344" lon="0.22587">
        <ele>88</ele>
        <time>2018-05-27T20:40:06Z</time>
      </trkpt>
      <trkpt lat="46.02392" lon="0.2274">
        <ele>89</ele>
        <time>2018-05-27T20:41:06Z</time>
      </trkpt>
      <trkpt lat="46.02442" lon="0.22766">
        <ele>90</ele>
        <time>2018-05-27T20:42:06Z</time>
      </trkpt>
      <trkpt lat="46.02406" lon="0.23087">
        <ele>84</ele>
        <time>2018-05-27T20:43:06Z</time>
      </trkpt>
      <trkpt lat="46.02665" lon="0.23118">
        <ele>85</ele>
        <time>2018-05-27T20:44:06Z</time>
      </trkpt>
      <trkpt lat="46.02635" lon="0.2333">
        <ele>96</ele>
        <time>2018-05-27T20:45:06Z</time>
      </trkpt>
      <trkpt lat="46.02957" lon="0.23439">
        <ele>99</ele>
        <time>2018-05-27T20:46:06Z</time>
      </trkpt>
      <trkpt lat="46.02929" lon="0.23927">
        <ele>110</ele>
        <time>2018-05-27T20:47:06Z</time>
      </trkpt>
      <trkpt lat="46.02864" lon="0.24338">
        <ele>119</ele>
        <time>2018-05-27T20:48:06Z</time>
      </trkpt>
      <trkpt lat="46.0289" lon="0.24373">
        <ele>122</ele>
        <time>2018-05-27T20:49:06Z</time>
      </trkpt>
      <trkpt lat="46.02899" lon="0.25162">
        <ele>135</ele>
        <time>2018-05-27T20:50:06Z</time>
      </trkpt>
      <trkpt lat="46.02915" lon="0.2554">
        <ele>143</ele>
        <time>2018-05-27T20:51:06Z</time>
      </trkpt>
      <trkpt lat="46.02975" lon="0.25851">
        <ele>125</ele>
        <time>2018-05-27T20:52:06Z</time>
      </trkpt>
      <trkpt lat="46.02995" lon="0.26111">
        <ele>119</ele>
        <time>2018-05-27T20:53:06Z</time>
      </trkpt>
      <trkpt lat="46.03225" lon="0.262">
        <ele>119</ele>
        <time>2018-05-27T20:54:06Z</time>
      </trkpt>
      <trkpt lat="46.03099" lon="0.26535">
        <ele>110</ele>
        <time>2018-05-27T20:55:06Z</time>
      </trkpt>
      <trkpt lat="46.03018" lon="0.26882">
        <ele>108</ele>
        <time>2018-05-27T20:56:06Z</time>
      </trkpt>
      <trkpt lat="46.02833" lon="0.26915">
        <ele>123</ele>
        <time>2018-05-27T20:57:06Z</time>
      </trkpt>
      <trkpt lat="46.02631" lon="0.26963">
        <ele>131</ele>
        <time>2018-05-27T20:58:06Z</time>
      </trkpt>
      <trkpt lat="46.02491" lon="0.27313">
        <ele>133</ele>
        <time>2018-05-27T20:59:06Z</time>
      </trkpt>
      <trkpt lat="46.02506" lon="0.27622">
        <ele>139</ele>
        <time>2018-05-27T21:00:06Z</time>
      </trkpt>
      <trkpt lat="46.02509" lon="0.27788">
        <ele>142</ele>
        <time>2018-05-27T21:01:06Z</time>
      </trkpt>
      <trkpt lat="46.0247" lon="0.28163">
        <ele>142</ele>
        <time>2018-05-27T21:02:06Z</time>
      </trkpt>
      <trkpt lat="46.02353" lon="0.28137">
        <ele>141</ele>
        <time>2018-05-27T21:03:06Z</time>
      </trkpt>
      <trkpt lat="46.02298" lon="0.28224">
        <ele>141</ele>
        <time>2018-05-27T21:04:06Z</time>
      </trkpt>
      <trkpt lat="46.02171" lon="0.28155">
        <ele>141</ele>
        <time>2018-05-27T21:05:06Z</time>
      </trkpt>
      <trkpt lat="46.02048" lon="0.28155">
        <ele>140</ele>
        <time>2018-05-27T21:06:06Z</time>
      </trkpt>
      <trkpt lat="46.01861" lon="0.28326">
        <ele>140</ele>
        <time>2018-05-27T21:07:06Z</time>
      </trkpt>
      <trkpt lat="46.01711" lon="0.28616">
        <ele>140</ele>
        <time>2018-05-27T21:08:06Z</time>
      </trkpt>
      <trkpt lat="46.01614" lon="0.28794">
        <ele>148</ele>
        <time>2018-05-27T21:09:06Z</time>
      </trkpt>
      <trkpt lat="46.01485" lon="0.28985">
        <ele>151</ele>
        <time>2018-05-27T21:10:06Z</time>
      </trkpt>
      <trkpt lat="46.01304" lon="0.29049">
        <ele>147</ele>
        <time>2018-05-27T21:11:06Z</time>
      </trkpt>
      <trkpt lat="46.01126" lon="0.2935">
        <ele>145</ele>
        <time>2018-05-27T21:12:06Z</time>
      </trkpt>
      <trkpt lat="46.01018" lon="0.29365">
        <ele>140</ele>
        <time>2018-05-27T21:13:06Z</time>
      </trkpt>
      <trkpt lat="46.0096" lon="0.29384">
        <ele>139</ele>
        <time>2018-05-27T21:14:06Z</time>
      </trkpt>
      <trkpt lat="46.00881" lon="0.29294">
        <ele>138</ele>
        <time>2018-05-27T21:15:06Z</time>
      </trkpt>
      <trkpt lat="46.00632" lon="0.29219">
        <ele>133</ele>
        <time>2018-05-27T21:16:06Z</time>
      </trkpt>
      <trkpt lat="46.00421" lon="0.29318">
        <ele>136</ele>
        <time>2018-05-27T21:17:06Z</time>
      </trkpt>
      <trkpt lat="46.00336" lon="0.29468">
        <ele>140</ele>
        <time>2018-05-27T21:18:06Z</time>
      </trkpt>
      <trkpt lat="46.00324" lon="0.29616">
        <ele>140</ele>
        <time>2018-05-27T21:19:06Z</time>
      </trkpt>
      <trkpt lat="46.00248" lon="0.30365">
        <ele>140</ele>
        <time>2018-05-27T21:20:06Z</time>
      </trkpt>
      <trkpt lat="46.00216" lon="0.30899">
        <ele>149</ele>
        <time>2018-05-27T21:21:06Z</time>
      </trkpt>
      <trkpt lat="46.00249" lon="0.30948">
        <ele>149</ele>
        <time>2018-05-27T21:22:06Z</time>
      </trkpt>
      <trkpt lat="46.00127" lon="0.31337">
        <ele>140</ele>
        <time>2018-05-27T21:23:06Z</time>
      </trkpt>
      <trkpt lat="46.00052" lon="0.31665">
        <ele>133</ele>
        <time>2018-05-27T21:24:06Z</time>
      </trkpt>
      <trkpt lat="46.0004" lon="0.31893">
        <ele>109</ele>
        <time>2018-05-27T21:25:06Z</time>
      </trkpt>
      <trkpt lat="46.00063" lon="0.31953">
        <ele>107</ele>
        <time>2018-05-27T21:26:06Z</time>
      </trkpt>
      <trkpt lat="46.00057" lon="0.32068">
        <ele>109</ele>
        <time>2018-05-27T21:27:06Z</time>
      </trkpt>
      <trkpt lat="46.00099" lon="0.3221">
        <ele>110</ele>
        <time>2018-05-27T21:28:06Z</time>
      </trkpt>
      <trkpt lat="46.00146" lon="0.32298">
        <ele>111</ele>
        <time>2018-05-27T21:29:06Z</time>
      </trkpt>
      <trkpt lat="46.001" lon="0.3236">
        <ele>108</ele>
        <time>2018-05-27T21:30:06Z</time>
      </trkpt>
      <trkpt lat="46.00036" lon="0.32335">
        <ele>104</ele>
        <time>2018-05-27T21:31:06Z</time>
      </trkpt>
      <trkpt lat="45.99984" lon="0.32281">
        <ele>102</ele>
        <time>2018-05-27T21:32:06Z</time>
      </trkpt>
      <trkpt lat="45.99912" lon="0.3224">
        <ele>101</ele>
        <time>2018-05-27T21:33:06Z</time>
      </trkpt>
      <trkpt lat="45.9989" lon="0.32272">
        <ele>104</ele>
        <time>2018-05-27T21:34:06Z</time>
      </trkpt>
      <trkpt lat="45.99899" lon="0.32438">
        <ele>107</ele>
        <time>2018-05-27T21:35:06Z</time>
      </trkpt>
      <trkpt lat="45.99912" lon="0.32637">
        <ele>106</ele>
        <time>2018-05-27T21:36:06Z</time>
      </trkpt>
      <trkpt lat="45.99893" lon="0.32835">
        <ele>109</ele>
        <time>2018-05-27T21:37:06Z</time>
      </trkpt>
      <trkpt lat="45.99769" lon="0.33212">
        <ele>114</ele>
        <time>2018-05-27T21:38:06Z</time>
      </trkpt>
      <trkpt lat="45.99561" lon="0.3342">
        <ele>110</ele>
        <time>2018-05-27T21:39:06Z</time>
      </trkpt>
      <trkpt lat="45.99495" lon="0.33624">
        <ele>114</ele>
        <time>2018-05-27T21:40:06Z</time>
      </trkpt>
      <trkpt lat="45.99505" lon="0.34034">
        <ele>106</ele>
        <time>2018-05-27T21:41:06Z</time>
      </trkpt>
      <trkpt lat="45.99434" lon="0.34356">
        <ele>114</ele>
        <time>2018-05-27T21:42:06Z</time>
      </trkpt>
      <trkpt lat="45.99365" lon="0.34744">
        <ele>113</ele>
        <time>2018-05-27T21:43:06Z</time>
      </trkpt>
      <trkpt lat="45.99237" lon="0.34873">
        <ele>112</ele>
        <time>2018-05-27T21:44:06Z</time>
      </trkpt>
      <trkpt lat="45.99088" lon="0.35036">
        <ele>114</ele>
        <time>2018-05-27T21:45:06Z</time>
      </trkpt>
      <trkpt lat="45.99016" lon="0.35281">
        <ele>115</ele>
        <time>2018-05-27T21:46:06Z</time>
      </trkpt>
      <trkpt lat="45.98994" lon="0.35527">
        <ele>112</ele>
        <time>2018-05-27T21:47:06Z</time>
      </trkpt>
      <trkpt lat="45.98922" lon="0.35766">
        <ele>112</ele>
        <time>2018-05-27T21:48:06Z</time>
      </trkpt>
      <trkpt lat="45.98815" lon="0.36027">
        <ele>117</ele>
        <time>2018-05-27T21:49:06Z</time>
      </trkpt>
      <trkpt lat="45.98833" lon="0.36349">
        <ele>118</ele>
        <time>2018-05-27T21:50:06Z</time>
      </trkpt>
      <trkpt lat="45.98852" lon="0.36624">
        <ele>116</ele>
        <time>2018-05-27T21:51:06Z</time>
      </trkpt>
      <trkpt lat="45.98832" lon="0.36907">
        <ele>122</ele>
        <time>2018-05-27T21:52:06Z</time>
      </trkpt>
      <trkpt lat="45.98818" lon="0.37066">
        <ele>121</ele>
        <time>2018-05-27T21:53:06Z</time>
      </trkpt>
      <trkpt lat="45.98885" lon="0.37476">
        <ele>129</ele>
        <time>2018-05-27T21:54:06Z</time>
      </trkpt>
      <trkpt lat="45.98925" lon="0.38626">
        <ele>128</ele>
        <time>2018-05-27T21:55:06Z</time>
      </trkpt>
      <trkpt lat="45.98931" lon="0.38931">
        <ele>141</ele>
        <time>2018-05-27T21:56:06Z</time>
      </trkpt>
      <trkpt lat="45.98916" lon="0.38909">
        <ele>140</ele>
        <time>2018-05-27T21:57:06Z</time>
      </trkpt>
      <trkpt lat="45.98912" lon="0.39021">
        <ele>144</ele>
        <time>2018-05-27T21:58:06Z</time>
      </trkpt>
      <trkpt lat="45.98936" lon="0.39081">
        <ele>144</ele>
        <time>2018-05-27T21:59:06Z</time>
      </trkpt>
      <trkpt lat="45.98934" lon="0.39289">
        <ele>147</ele>
        <time>2018-05-27T22:00:06Z</time>
      </trkpt>
      <trkpt lat="45.98867" lon="0.39564">
        <ele>154</ele>
        <time>2018-05-27T22:01:06Z</time>
      </trkpt>
      <trkpt lat="45.98688" lon="0.40169">
        <ele>161</ele>
        <time>2018-05-27T22:02:06Z</time>
      </trkpt>
      <trkpt lat="45.9873" lon="0.40225">
        <ele>159</ele>
        <time>2018-05-27T22:03:06Z</time>
      </trkpt>
      <trkpt lat="45.98706" lon="0.4031">
        <ele>156</ele>
        <time>2018-05-27T22:04:06Z</time>
      </trkpt>
      <trkpt lat="45.987" lon="0.40375">
        <ele>155</ele>
        <time>2018-05-27T22:05:06Z</time>
      </trkpt>
      <trkpt lat="45.98851" lon="0.40652">
        <ele>148</ele>
        <time>2018-05-27T22:06:06Z</time>
      </trkpt>
      <trkpt lat="45.98897" lon="0.40718">
        <ele>146</ele>
        <time>2018-05-27T22:07:06Z</time>
      </trkpt>
      <trkpt lat="45.98942" lon="0.40967">
        <ele>147</ele>
        <time>2018-05-27T22:08:06Z</time>
      </trkpt>
      <trkpt lat="45.98985" lon="0.41064">
        <ele>146</ele>
        <time>2018-05-27T22:09:06Z</time>
      </trkpt>
      <trkpt lat="45.99128" lon="0.41164">
        <ele>140</ele>
        <time>2018-05-27T22:10:06Z</time>
      </trkpt>
    </trkseg>
  </trk>
</gpx>